createdAt,value
2019-06-26T00:00:49.842Z,6.60
2019-06-26T00:03:21.662Z,7.63
2019-06-26T00:05:53.209Z,7.67
2019-06-26T00:08:24.600Z,7.63
2019-06-26T00:10:55.840Z,8.20
2019-06-26T00:13:26.738Z,7.93
2019-06-26T00:15:52.365Z,7.57
2019-06-26T00:18:19.196Z,6.90
2019-06-26T00:20:48.295Z,7.33
2019-06-26T00:23:16.578Z,6.50
2019-06-26T00:25:43.603Z,8.00
2019-06-26T00:28:12.101Z,6.83
2019-06-26T00:30:41.222Z,7.17
2019-06-26T00:33:08.971Z,7.00
2019-06-26T00:35:38.665Z,7.43
2019-06-26T00:38:06.186Z,8.13
2019-06-26T00:40:34.493Z,8.33
2019-06-26T00:43:02.786Z,7.70
2019-06-26T00:45:37.049Z,7.47
2019-06-26T00:48:03.433Z,7.80
2019-06-26T00:50:29.748Z,8.37
2019-06-26T00:52:57.428Z,7.53
2019-06-26T00:55:24.755Z,7.23
2019-06-26T00:57:51.111Z,7.63
2019-06-26T01:00:25.217Z,7.90
2019-06-26T01:02:51.603Z,7.77
2019-06-26T01:05:18.027Z,8.00
2019-06-26T01:07:46.391Z,8.87
2019-06-26T01:10:12.735Z,9.23
2019-06-26T01:12:41.103Z,8.93
2019-06-26T01:15:08.611Z,10.70
2019-06-26T01:17:37.107Z,9.40
2019-06-26T01:20:05.405Z,11.27
2019-06-26T01:22:31.877Z,11.63
2019-06-26T01:24:58.358Z,10.93
2019-06-26T01:27:24.761Z,11.47
2019-06-26T01:29:54.981Z,15.17
2019-06-26T01:32:30.526Z,11.30
2019-06-26T01:35:04.383Z,12.10
2019-06-26T01:37:35.115Z,13.90
2019-06-26T01:40:08.929Z,13.50
2019-06-26T01:42:35.423Z,15.10
2019-06-26T01:45:12.563Z,19.13
2019-06-26T01:47:42.756Z,17.37
2019-06-26T01:50:09.352Z,13.30
2019-06-26T01:52:37.559Z,12.23
2019-06-26T01:55:06.819Z,12.23
2019-06-26T01:57:35.816Z,17.73
2019-06-26T02:00:12.824Z,13.23
2019-06-26T02:02:41.767Z,13.50
2019-06-26T02:05:10.124Z,11.77
2019-06-26T02:07:39.601Z,12.17
2019-06-26T02:10:10.358Z,10.80
2019-06-26T02:12:45.169Z,11.07
2019-06-26T02:15:16.550Z,9.93
2019-06-26T02:17:43.022Z,10.90
2019-06-26T02:20:12.745Z,9.47
2019-06-26T02:22:39.171Z,13.07
2019-06-26T02:25:05.751Z,10.90
2019-06-26T02:27:33.014Z,10.87
2019-06-26T02:30:07.064Z,10.87
2019-06-26T02:32:37.573Z,11.40
2019-06-26T02:35:10.219Z,10.80
2019-06-26T02:37:42.313Z,11.07
2019-06-26T02:40:12.502Z,10.53
2019-06-26T02:42:39.025Z,10.23
2019-06-26T02:45:05.786Z,9.70
2019-06-26T02:47:32.146Z,10.07
2019-06-26T02:50:03.255Z,9.87
2019-06-26T02:52:36.896Z,12.87
2019-06-26T02:55:06.163Z,10.67
2019-06-26T02:57:34.366Z,10.90
2019-06-26T03:00:03.875Z,10.33
2019-06-26T03:02:32.728Z,11.30
2019-06-26T03:05:03.533Z,10.67
2019-06-26T03:07:27.207Z,9.90
2019-06-26T03:09:55.479Z,9.90
2019-06-26T03:12:23.763Z,10.40
2019-06-26T03:15:07.519Z,10.57
2019-06-26T03:17:21.856Z,9.70
2019-06-26T03:19:51.040Z,8.50
2019-06-26T03:22:20.432Z,9.07
2019-06-26T03:24:48.440Z,8.43
2019-06-26T03:27:20.529Z,8.77
2019-06-26T03:29:48.837Z,10.10
2019-06-26T03:32:15.210Z,10.00
2019-06-26T03:34:43.292Z,9.70
2019-06-26T03:37:12.563Z,10.43
2019-06-26T03:39:46.969Z,9.50
2019-06-26T03:42:10.978Z,9.90
2019-06-26T03:44:37.355Z,9.43
2019-06-26T03:47:05.638Z,9.47
2019-06-26T03:49:32.010Z,10.20
2019-06-26T03:51:59.495Z,9.87
2019-06-26T03:54:30.650Z,10.07
2019-06-26T03:56:57.105Z,10.90
2019-06-26T03:59:23.417Z,10.87
2019-06-26T04:01:49.821Z,10.30
2019-06-26T04:04:16.222Z,10.57
2019-06-26T04:06:43.359Z,10.83
2019-06-26T04:09:12.538Z,10.50
2019-06-26T04:11:37.850Z,10.77
2019-06-26T04:23:50.235Z,11.00
2019-06-26T04:26:14.364Z,10.33
2019-06-26T04:28:42.801Z,11.13
2019-06-26T04:31:10.854Z,11.67
2019-06-26T04:33:39.445Z,11.10
2019-06-26T04:36:09.759Z,11.13
2019-06-26T04:38:36.184Z,12.33
2019-06-26T04:41:06.268Z,13.13
2019-06-26T04:43:34.600Z,13.10
2019-06-26T04:46:02.908Z,12.90
2019-06-26T04:48:33.105Z,12.80
2019-06-26T04:51:01.515Z,13.30
2019-06-26T04:53:27.861Z,13.63
2019-06-26T04:55:56.168Z,13.53
2019-06-26T04:58:28.633Z,13.77
2019-06-26T05:00:56.070Z,12.17
2019-06-26T05:03:24.354Z,13.60
2019-06-26T05:05:51.932Z,12.77
2019-06-26T05:08:22.400Z,14.40
2019-06-26T05:10:54.974Z,13.47
2019-06-26T05:13:24.395Z,13.77
2019-06-26T05:15:53.562Z,14.47
2019-06-26T05:18:19.957Z,14.03
2019-06-26T05:20:48.782Z,12.90
2019-06-26T05:23:16.441Z,13.30
2019-06-26T05:25:45.354Z,12.30
2019-06-26T05:28:15.813Z,12.07
2019-06-26T05:30:42.491Z,12.07
2019-06-26T05:33:08.960Z,12.60
2019-06-26T05:35:45.663Z,12.20
2019-06-26T05:38:12.037Z,12.15
2019-06-26T05:40:43.860Z,12.50
2019-06-26T05:43:12.454Z,11.78
2019-06-26T05:45:38.798Z,11.35
2019-06-26T05:48:08.030Z,13.07
2019-06-26T05:50:37.432Z,11.68
2019-06-26T05:53:05.755Z,11.30
2019-06-26T05:55:33.190Z,11.70
2019-06-26T05:58:01.513Z,11.75
2019-06-26T06:00:29.870Z,12.25
2019-06-26T06:02:56.896Z,10.68
2019-06-26T06:05:28.053Z,10.98
2019-06-26T06:07:56.296Z,10.95
2019-06-26T06:10:24.590Z,10.90
2019-06-26T06:12:52.877Z,11.45
2019-06-26T06:15:24.125Z,11.83
2019-06-26T06:17:52.404Z,10.98
2019-06-26T06:20:33.339Z,10.28
2019-06-26T06:22:59.762Z,10.18
2019-06-26T06:25:26.122Z,11.20
2019-06-26T06:27:52.507Z,11.60
2019-06-26T06:30:29.469Z,11.05
2019-06-26T06:32:57.751Z,12.20
2019-06-26T06:35:24.135Z,11.40
2019-06-26T06:37:51.646Z,11.18
2019-06-26T06:40:21.227Z,11.38
2019-06-26T06:42:47.595Z,9.28
2019-06-26T06:45:16.304Z,11.12
2019-06-26T06:47:45.640Z,9.45
2019-06-26T06:50:13.752Z,9.83
2019-06-26T06:52:42.358Z,9.35
2019-06-26T06:55:08.847Z,11.20
2019-06-26T06:57:35.326Z,10.00
2019-06-26T07:00:01.729Z,11.00
2019-06-26T07:02:28.461Z,8.25
2019-06-26T07:04:55.860Z,9.23
2019-06-26T07:07:29.039Z,8.45
2019-06-26T07:09:57.285Z,8.15
2019-06-26T07:12:24.608Z,8.18
2019-06-26T07:14:53.839Z,9.28
2019-06-26T07:17:21.401Z,8.23
2019-06-26T07:19:50.713Z,8.33
2019-06-26T07:22:19.804Z,9.83
2019-06-26T07:24:46.284Z,8.25
2019-06-26T07:27:13.919Z,7.67
2019-06-26T07:29:42.214Z,10.65
2019-06-26T07:32:08.644Z,9.80
2019-06-26T07:34:36.119Z,8.80
2019-06-26T07:37:02.649Z,8.70
2019-06-26T07:39:28.980Z,7.55
2019-06-26T07:41:57.264Z,7.42
2019-06-26T07:44:23.633Z,8.68
2019-06-26T07:46:50.086Z,6.85
2019-06-26T07:49:18.351Z,7.60
2019-06-26T07:51:44.720Z,7.58
2019-06-26T07:54:11.094Z,9.35
2019-06-26T07:56:37.542Z,9.85
2019-06-26T07:59:03.970Z,6.45
2019-06-26T08:01:30.415Z,5.30
2019-06-26T08:03:56.895Z,6.28
2019-06-26T08:06:25.192Z,6.37
2019-06-26T08:08:56.722Z,6.62
2019-06-26T08:11:25.060Z,6.25
2019-06-26T08:13:51.475Z,4.85
2019-06-26T08:16:21.692Z,5.60
2019-06-26T08:18:50.017Z,5.40
2019-06-26T08:21:16.459Z,6.60
2019-06-26T08:23:45.577Z,4.58
2019-06-26T08:26:11.974Z,5.17
2019-06-26T08:28:39.296Z,5.87
2019-06-26T08:31:07.036Z,5.80
2019-06-26T08:33:35.285Z,5.08
2019-06-26T08:36:03.563Z,4.75
2019-06-26T08:38:33.417Z,4.72
2019-06-26T08:40:59.813Z,5.58
2019-06-26T08:43:26.470Z,6.15
2019-06-26T08:45:56.111Z,5.20
2019-06-26T08:48:38.771Z,6.97
2019-06-26T08:50:58.287Z,6.90
2019-06-26T08:53:26.018Z,4.87
2019-06-26T08:55:54.242Z,5.50
2019-06-26T08:58:24.447Z,4.85
2019-06-26T09:00:53.088Z,5.20
2019-06-26T09:03:27.356Z,4.55
2019-06-26T09:05:55.672Z,5.80
2019-06-26T09:08:22.131Z,5.15
2019-06-26T09:10:48.527Z,4.92
2019-06-26T09:13:14.899Z,5.03
2019-06-26T09:15:41.326Z,5.33
2019-06-26T09:18:07.680Z,5.67
2019-06-26T09:20:40.520Z,5.10
2019-06-26T09:23:07.511Z,5.20
2019-06-26T09:25:34.141Z,4.62
2019-06-26T09:28:00.546Z,4.90
2019-06-26T09:30:27.040Z,4.70
2019-06-26T09:32:53.476Z,5.97
2019-06-26T09:35:20.896Z,5.00
2019-06-26T09:37:47.275Z,4.60
2019-06-26T09:40:13.788Z,4.45
2019-06-26T09:42:40.168Z,4.35
2019-06-26T09:45:07.089Z,5.00
2019-06-26T09:47:33.518Z,4.40
2019-06-26T09:49:59.984Z,4.08
2019-06-26T09:52:26.370Z,5.50
2019-06-26T09:54:53.005Z,4.65
2019-06-26T09:57:19.547Z,4.60
2019-06-26T09:59:45.949Z,4.60
2019-06-26T10:02:12.398Z,4.55
2019-06-26T10:04:38.783Z,4.45
2019-06-26T10:07:05.188Z,4.55
2019-06-26T10:09:31.611Z,4.30
2019-06-26T10:11:57.946Z,4.62
2019-06-26T10:14:24.310Z,5.22
2019-06-26T10:16:50.640Z,4.90
2019-06-26T10:19:17.120Z,5.85
2019-06-26T10:21:43.448Z,4.97
2019-06-26T10:24:09.842Z,4.67
2019-06-26T10:26:37.195Z,5.40
2019-06-26T10:29:03.590Z,4.50
2019-06-26T10:31:30.136Z,6.30
2019-06-26T10:33:56.571Z,9.38
2019-06-26T10:36:24.701Z,4.55
2019-06-26T10:38:51.137Z,4.35
2019-06-26T10:41:17.544Z,4.35
2019-06-26T10:43:43.959Z,4.42
2019-06-26T10:46:10.314Z,4.83
2019-06-26T10:48:36.689Z,7.47
2019-06-26T10:51:03.094Z,4.45
2019-06-26T10:53:29.552Z,7.85
2019-06-26T10:55:56.032Z,4.05
2019-06-26T10:58:22.452Z,4.30
2019-06-26T11:00:49.997Z,5.10
2019-06-26T11:03:16.381Z,3.87
2019-06-26T11:05:42.782Z,4.33
2019-06-26T11:08:09.152Z,4.05
2019-06-26T11:10:35.546Z,4.12
2019-06-26T11:13:02.366Z,3.72
2019-06-26T11:15:28.923Z,4.12
2019-06-26T11:17:55.272Z,4.45
2019-06-26T11:20:21.657Z,4.30
2019-06-26T11:22:48.029Z,4.17
2019-06-26T11:25:18.264Z,3.95
2019-06-26T11:27:44.685Z,4.20
2019-06-26T11:30:11.487Z,5.60
2019-06-26T11:32:38.008Z,4.42
2019-06-26T11:35:07.464Z,5.53
2019-06-26T11:37:33.942Z,4.05
2019-06-26T11:40:00.251Z,4.08
2019-06-26T11:42:26.628Z,4.12
2019-06-26T11:44:53.018Z,4.25
2019-06-26T11:47:19.384Z,4.70
2019-06-26T11:49:58.999Z,4.60
2019-06-26T11:52:14.115Z,4.37
2019-06-26T11:54:40.473Z,4.17
2019-06-26T11:57:06.853Z,4.65
2019-06-26T11:59:33.302Z,6.60
2019-06-26T12:01:59.769Z,4.70
2019-06-26T12:04:26.194Z,4.22
2019-06-26T12:06:52.640Z,4.60
2019-06-26T12:09:19.120Z,4.90
2019-06-26T12:11:45.527Z,4.95
2019-06-26T12:14:14.555Z,4.95
2019-06-26T12:16:43.677Z,5.60
2019-06-26T12:19:10.177Z,4.58
2019-06-26T12:21:36.735Z,4.90
2019-06-26T12:24:03.107Z,5.25
2019-06-26T12:26:29.487Z,4.90
2019-06-26T12:28:56.866Z,5.40
2019-06-26T12:31:23.321Z,6.47
2019-06-26T12:33:49.725Z,4.97
2019-06-26T12:36:16.338Z,5.78
2019-06-26T12:38:44.650Z,5.20
2019-06-26T12:41:11.045Z,7.17
2019-06-26T12:43:39.352Z,5.47
2019-06-26T12:46:08.555Z,5.95
2019-06-26T12:48:35.009Z,5.40
2019-06-26T12:51:01.512Z,5.95
2019-06-26T12:53:27.912Z,5.62
2019-06-26T12:55:54.321Z,5.80
2019-06-26T12:58:20.694Z,5.70
2019-06-26T13:00:47.137Z,5.70
2019-06-26T13:03:13.554Z,5.83
2019-06-26T13:05:40.000Z,5.37
2019-06-26T13:08:06.405Z,5.85
2019-06-26T13:10:48.532Z,6.47
2019-06-26T13:13:02.063Z,7.65
2019-06-26T13:15:30.400Z,6.75
2019-06-26T13:17:57.122Z,7.03
2019-06-26T13:20:25.462Z,5.83
2019-06-26T13:22:51.806Z,6.22
2019-06-26T13:25:18.165Z,6.03
2019-06-26T13:27:44.534Z,7.40
2019-06-26T13:30:12.520Z,6.45
2019-06-26T13:32:41.761Z,7.30
2019-06-26T13:35:13.878Z,5.87
2019-06-26T13:37:42.164Z,6.90
2019-06-26T13:40:10.756Z,6.33
2019-06-26T13:42:37.184Z,6.17
2019-06-26T13:45:06.114Z,6.05
2019-06-26T13:47:32.618Z,6.40
2019-06-26T13:49:58.977Z,6.28
2019-06-26T13:52:27.296Z,6.10
2019-06-26T13:54:57.331Z,6.75
2019-06-26T13:57:28.857Z,6.40
2019-06-26T13:59:55.255Z,8.25
2019-06-26T14:02:21.607Z,6.67
2019-06-26T14:04:47.998Z,6.35
2019-06-26T14:07:14.421Z,6.60
2019-06-26T14:09:40.855Z,7.55
2019-06-26T14:12:07.181Z,6.30
2019-06-26T14:14:52.713Z,6.37
2019-06-26T14:17:04.620Z,6.00
2019-06-26T14:19:31.776Z,6.08
2019-06-26T14:22:03.415Z,5.55
2019-06-26T14:24:37.631Z,5.78
2019-06-26T14:27:04.033Z,7.70
2019-06-26T14:29:30.425Z,6.85
2019-06-26T14:32:01.261Z,6.50
2019-06-26T14:34:28.358Z,6.42
2019-06-26T14:37:00.253Z,6.83
2019-06-26T14:39:26.668Z,7.67
2019-06-26T14:41:57.261Z,6.53
2019-06-26T14:44:25.592Z,6.50
2019-06-26T14:46:56.396Z,6.33
2019-06-26T14:49:23.271Z,7.15
2019-06-26T14:51:49.929Z,7.05
2019-06-26T14:54:16.356Z,6.83
2019-06-26T14:56:42.765Z,8.25
2019-06-26T14:59:15.116Z,6.78
2019-06-26T15:01:45.317Z,6.00
2019-06-26T15:04:15.602Z,8.13
2019-06-26T15:06:42.038Z,7.20
2019-06-26T15:09:10.355Z,6.90
2019-06-26T15:11:36.734Z,5.78
2019-06-26T15:14:05.029Z,5.67
2019-06-26T15:16:33.335Z,6.22
2019-06-26T15:19:02.315Z,5.12
2019-06-26T15:21:31.588Z,6.15
2019-06-26T15:23:57.957Z,5.75
2019-06-26T15:26:24.358Z,5.80
2019-06-26T15:28:52.706Z,6.42
2019-06-26T15:31:19.115Z,5.65
2019-06-26T15:33:48.563Z,6.20
2019-06-26T15:36:17.421Z,6.35
2019-06-26T15:38:46.264Z,5.42
2019-06-26T15:41:15.769Z,5.47
2019-06-26T15:43:44.044Z,5.22
2019-06-26T15:46:13.382Z,6.12
2019-06-26T15:48:42.609Z,6.87
2019-06-26T15:51:09.186Z,6.37
2019-06-26T15:53:38.978Z,4.60
2019-06-26T15:56:14.675Z,6.70
2019-06-26T15:58:38.755Z,8.08
2019-06-26T16:01:07.100Z,5.47
2019-06-26T16:03:34.753Z,6.50
2019-06-26T16:06:01.073Z,5.20
2019-06-26T16:08:27.430Z,4.20
2019-06-26T16:10:53.845Z,6.05
2019-06-26T16:13:20.244Z,6.05
2019-06-26T16:15:48.685Z,6.55
2019-06-26T16:18:19.862Z,5.05
2019-06-26T16:20:50.080Z,7.60
2019-06-26T16:23:18.437Z,6.55
2019-06-26T16:25:48.483Z,5.67
2019-06-26T16:28:20.216Z,7.15
2019-06-26T16:30:48.598Z,5.80
2019-06-26T16:33:15.920Z,6.37
2019-06-26T16:35:44.543Z,5.72
2019-06-26T16:38:10.901Z,5.60
2019-06-26T16:40:37.364Z,5.95
2019-06-26T16:43:08.370Z,6.08
2019-06-26T16:45:36.683Z,4.72
2019-06-26T16:48:11.405Z,6.10
2019-06-26T16:50:37.805Z,7.25
2019-06-26T16:53:04.219Z,7.20
2019-06-26T16:55:30.619Z,7.15
2019-06-26T16:57:58.930Z,6.50
2019-06-26T17:00:27.199Z,6.83
2019-06-26T17:02:57.120Z,7.58
2019-06-26T17:05:25.747Z,7.72
2019-06-26T17:07:55.984Z,7.17
2019-06-26T17:10:23.960Z,8.05
2019-06-26T17:12:53.353Z,6.97
2019-06-26T17:15:20.817Z,6.90
2019-06-26T17:17:50.611Z,6.17
2019-06-26T17:20:20.459Z,8.85
2019-06-26T17:22:47.447Z,6.20
2019-06-26T17:25:17.653Z,5.35
2019-06-26T17:27:47.892Z,6.15
2019-06-26T17:30:16.294Z,5.80
2019-06-26T17:32:42.724Z,6.78
2019-06-26T17:35:11.214Z,7.35
2019-06-26T17:37:37.654Z,6.72
2019-06-26T17:40:07.416Z,10.60
2019-06-26T17:42:33.689Z,7.20
2019-06-26T17:45:00.177Z,7.20
2019-06-26T17:47:32.769Z,6.70
2019-06-26T17:50:02.993Z,8.25
2019-06-26T17:52:34.478Z,8.35
2019-06-26T17:55:03.786Z,7.90
2019-06-26T17:57:33.497Z,8.85
2019-06-26T18:00:03.154Z,8.68
2019-06-26T18:02:33.120Z,7.72
2019-06-26T18:05:01.536Z,8.68
2019-06-26T18:07:33.123Z,8.73
2019-06-26T18:10:02.291Z,8.93
2019-06-26T18:12:30.592Z,8.35
2019-06-26T18:14:58.924Z,10.30
2019-06-26T18:17:29.183Z,10.13
2019-06-26T18:20:00.366Z,11.70
2019-06-26T18:22:29.424Z,9.78
2019-06-26T18:24:57.795Z,7.37
2019-06-26T18:27:28.750Z,7.33
2019-06-26T18:29:57.082Z,6.45
2019-06-26T18:32:25.392Z,6.08
2019-06-26T18:34:57.932Z,6.65
2019-06-26T18:37:23.870Z,6.58
2019-06-26T18:39:51.323Z,6.45
2019-06-26T18:42:19.047Z,6.45
2019-06-26T18:44:45.328Z,5.85
2019-06-26T18:47:16.498Z,6.62
2019-06-26T18:49:49.414Z,6.60
2019-06-26T18:52:17.739Z,7.70
2019-06-26T18:54:50.635Z,8.10
2019-06-26T18:57:22.991Z,6.50
2019-06-26T18:59:51.296Z,7.37
2019-06-26T19:02:22.477Z,7.33
2019-06-26T19:04:54.033Z,7.42
2019-06-26T19:07:21.200Z,7.45
2019-06-26T19:09:49.493Z,8.40
2019-06-26T19:12:17.836Z,8.68
2019-06-26T19:14:46.186Z,8.78
2019-06-26T19:17:14.388Z,10.88
2019-06-26T19:19:40.835Z,16.35
2019-06-26T19:22:10.317Z,13.98
2019-06-26T19:24:36.702Z,21.85
2019-06-26T19:27:09.772Z,27.85
2019-06-26T19:29:38.885Z,17.25
2019-06-26T19:32:07.423Z,15.95
2019-06-26T19:34:35.086Z,13.83
2019-06-26T19:37:03.381Z,15.50
2019-06-26T19:39:29.722Z,13.60
2019-06-26T19:41:56.127Z,9.93
2019-06-26T19:44:24.526Z,11.18
2019-06-26T19:46:53.801Z,12.33
2019-06-26T19:49:22.170Z,8.95
2019-06-26T19:51:53.570Z,9.98
2019-06-26T19:54:27.720Z,9.98
2019-06-26T19:56:52.499Z,9.38
2019-06-26T19:59:25.086Z,10.60
2019-06-26T20:01:51.609Z,8.73
2019-06-26T20:04:22.009Z,7.50
2019-06-26T20:06:48.639Z,6.95
2019-06-26T20:09:18.923Z,6.92
2019-06-26T20:11:47.253Z,6.28
2019-06-26T20:23:55.962Z,6.90
2019-06-26T20:26:26.166Z,6.20
2019-06-26T20:28:54.521Z,6.03
2019-06-26T20:31:21.920Z,6.17
2019-06-26T20:33:52.198Z,7.67
2019-06-26T20:39:36.789Z,7.12
2019-06-26T20:42:05.064Z,6.78
2019-06-26T22:31:15.513Z,8.50
2019-06-26T22:33:41.921Z,21.17
2019-06-26T22:36:08.302Z,12.30
2019-06-26T22:38:34.706Z,11.67
2019-06-26T22:41:01.584Z,10.13
2019-06-26T22:43:28.017Z,11.27
2019-06-26T22:45:54.439Z,10.53
2019-06-26T22:48:20.870Z,10.07
2019-06-26T22:50:53.962Z,10.33
2019-06-26T22:53:22.061Z,9.93
2019-06-26T22:55:48.460Z,9.27
2019-06-26T22:58:21.381Z,9.43
2019-06-26T23:00:48.780Z,10.23
2019-06-26T23:03:15.161Z,10.53
2019-06-26T23:05:41.535Z,9.90
2019-06-26T23:08:07.916Z,10.63
2019-06-26T23:10:34.280Z,10.00
2019-06-26T23:13:00.630Z,10.73
2019-06-26T23:15:27.033Z,10.73
2019-06-26T23:17:54.239Z,10.70
2019-06-26T23:20:20.621Z,9.73
2019-06-26T23:22:47.078Z,11.63
2019-06-26T23:25:14.585Z,10.77
2019-06-26T23:27:40.979Z,11.43
2019-06-26T23:30:16.214Z,10.60
2019-06-26T23:32:42.594Z,9.63
2019-06-26T23:35:08.974Z,10.60
2019-06-26T23:37:35.363Z,11.57
2019-06-26T23:40:02.506Z,10.60
2019-06-26T23:42:28.907Z,10.23
2019-06-26T23:44:55.338Z,11.30
2019-06-26T23:47:21.723Z,9.83
2019-06-26T23:49:48.127Z,9.33
2019-06-26T23:52:14.559Z,10.13
2019-06-26T23:54:40.968Z,8.07
2019-06-26T23:57:07.375Z,7.73
2019-06-26T23:59:33.797Z,9.73
